sensor_id;sensor_type;location;lat;lon;timestamp;temperature;humidity
74294;DHT22;64044;59.904;10.738;2023-05-27T00:00:08;14.10;40.80
74294;DHT22;64044;59.904;10.738;2023-05-27T00:02:34;14.10;41.40
74294;DHT22;64044;59.904;10.738;2023-05-27T00:05:00;14.10;41.80
74294;DHT22;64044;59.904;10.738;2023-05-27T00:07:26;14.00;41.70
74294;DHT22;64044;59.904;10.738;2023-05-27T00:09:52;14.00;41.60
74294;DHT22;64044;59.904;10.738;2023-05-27T00:12:17;13.90;41.50
74294;DHT22;64044;59.904;10.738;2023-05-27T00:14:43;14.00;41.60
74294;DHT22;64044;59.904;10.738;2023-05-27T00:17:10;13.90;41.60
74294;DHT22;64044;59.904;10.738;2023-05-27T00:19:42;13.80;42.20
74294;DHT22;64044;59.904;10.738;2023-05-27T00:22:10;13.80;42.10
74294;DHT22;64044;59.904;10.738;2023-05-27T00:24:36;13.90;41.60
74294;DHT22;64044;59.904;10.738;2023-05-27T00:27:05;13.90;41.80
74294;DHT22;64044;59.904;10.738;2023-05-27T00:29:31;13.80;42.00
74294;DHT22;64044;59.904;10.738;2023-05-27T00:31:57;13.80;41.80
74294;DHT22;64044;59.904;10.738;2023-05-27T00:34:22;13.80;41.80
74294;DHT22;64044;59.904;10.738;2023-05-27T00:36:48;13.70;42.40
74294;DHT22;64044;59.904;10.738;2023-05-27T00:39:14;13.70;42.40
74294;DHT22;64044;59.904;10.738;2023-05-27T00:41:43;13.70;42.30
74294;DHT22;64044;59.904;10.738;2023-05-27T00:44:13;13.60;42.20
74294;DHT22;64044;59.904;10.738;2023-05-27T00:46:38;13.60;42.20
74294;DHT22;64044;59.904;10.738;2023-05-27T00:49:05;13.60;42.30
74294;DHT22;64044;59.904;10.738;2023-05-27T00:51:30;13.60;42.40
74294;DHT22;64044;59.904;10.738;2023-05-27T00:54:21;13.60;42.40
74294;DHT22;64044;59.904;10.738;2023-05-27T00:56:47;13.60;42.60
74294;DHT22;64044;59.904;10.738;2023-05-27T00:59:13;13.60;42.40
74294;DHT22;64044;59.904;10.738;2023-05-27T01:01:39;13.60;42.40
74294;DHT22;64044;59.904;10.738;2023-05-27T01:04:08;13.60;42.70
74294;DHT22;64044;59.904;10.738;2023-05-27T01:12:04;13.60;43.30
74294;DHT22;64044;59.904;10.738;2023-05-27T01:14:33;13.50;42.70
74294;DHT22;64044;59.904;10.738;2023-05-27T01:17:01;13.50;42.30
74294;DHT22;64044;59.904;10.738;2023-05-27T01:19:34;13.50;42.50
74294;DHT22;64044;59.904;10.738;2023-05-27T01:22:00;13.40;42.60
74294;DHT22;64044;59.904;10.738;2023-05-27T01:24:26;13.40;41.60
74294;DHT22;64044;59.904;10.738;2023-05-27T01:26:52;13.40;41.80
74294;DHT22;64044;59.904;10.738;2023-05-27T01:29:19;13.40;42.20
74294;DHT22;64044;59.904;10.738;2023-05-27T01:32:04;13.30;42.60
74294;DHT22;64044;59.904;10.738;2023-05-27T01:34:38;13.20;43.10
74294;DHT22;64044;59.904;10.738;2023-05-27T01:37:08;13.20;42.70
74294;DHT22;64044;59.904;10.738;2023-05-27T01:39:35;13.10;42.80
74294;DHT22;64044;59.904;10.738;2023-05-27T01:42:01;13.10;43.10
74294;DHT22;64044;59.904;10.738;2023-05-27T01:44:29;13.00;43.60
74294;DHT22;64044;59.904;10.738;2023-05-27T01:47:02;13.00;43.40
74294;DHT22;64044;59.904;10.738;2023-05-27T01:49:29;12.90;43.30
74294;DHT22;64044;59.904;10.738;2023-05-27T01:51:55;12.90;43.20
74294;DHT22;64044;59.904;10.738;2023-05-27T01:54:21;12.80;43.50
74294;DHT22;64044;59.904;10.738;2023-05-27T01:56:46;12.80;43.00
74294;DHT22;64044;59.904;10.738;2023-05-27T01:59:12;12.80;43.00
74294;DHT22;64044;59.904;10.738;2023-05-27T02:01:38;12.70;43.10
74294;DHT22;64044;59.904;10.738;2023-05-27T02:04:04;12.60;43.40
74294;DHT22;64044;59.904;10.738;2023-05-27T02:06:30;12.60;43.30
74294;DHT22;64044;59.904;10.738;2023-05-27T02:08:57;12.60;43.60
74294;DHT22;64044;59.904;10.738;2023-05-27T02:11:23;12.50;43.80
74294;DHT22;64044;59.904;10.738;2023-05-27T02:13:49;12.50;43.80
74294;DHT22;64044;59.904;10.738;2023-05-27T02:16:15;12.50;43.60
74294;DHT22;64044;59.904;10.738;2023-05-27T02:18:40;12.50;43.40
74294;DHT22;64044;59.904;10.738;2023-05-27T02:21:06;12.50;43.40
74294;DHT22;64044;59.904;10.738;2023-05-27T02:23:35;12.50;43.40
74294;DHT22;64044;59.904;10.738;2023-05-27T02:26:02;12.50;43.60
74294;DHT22;64044;59.904;10.738;2023-05-27T02:28:27;12.50;43.60
74294;DHT22;64044;59.904;10.738;2023-05-27T02:30:53;12.50;43.70
74294;DHT22;64044;59.904;10.738;2023-05-27T02:33:19;12.50;43.80
74294;DHT22;64044;59.904;10.738;2023-05-27T02:35:45;12.60;43.90
74294;DHT22;64044;59.904;10.738;2023-05-27T02:38:11;12.60;43.90
74294;DHT22;64044;59.904;10.738;2023-05-27T02:40:37;12.60;43.80
74294;DHT22;64044;59.904;10.738;2023-05-27T02:43:02;12.60;43.70
74294;DHT22;64044;59.904;10.738;2023-05-27T02:45:28;12.60;43.70
74294;DHT22;64044;59.904;10.738;2023-05-27T02:47:54;12.60;43.70
74294;DHT22;64044;59.904;10.738;2023-05-27T02:50:21;12.60;43.70
74294;DHT22;64044;59.904;10.738;2023-05-27T02:52:46;12.60;43.80
74294;DHT22;64044;59.904;10.738;2023-05-27T02:55:12;12.60;43.90
74294;DHT22;64044;59.904;10.738;2023-05-27T02:57:38;12.60;43.90
74294;DHT22;64044;59.904;10.738;2023-05-27T03:00:04;12.60;43.80
74294;DHT22;64044;59.904;10.738;2023-05-27T03:02:30;12.60;43.90
74294;DHT22;64044;59.904;10.738;2023-05-27T03:04:57;12.60;43.90
74294;DHT22;64044;59.904;10.738;2023-05-27T03:07:22;12.60;43.90
74294;DHT22;64044;59.904;10.738;2023-05-27T03:09:48;12.60;43.90
74294;DHT22;64044;59.904;10.738;2023-05-27T03:12:14;12.60;43.90
74294;DHT22;64044;59.904;10.738;2023-05-27T03:14:39;12.60;44.00
74294;DHT22;64044;59.904;10.738;2023-05-27T03:17:05;12.60;44.00
74294;DHT22;64044;59.904;10.738;2023-05-27T03:19:31;12.60;43.90
74294;DHT22;64044;59.904;10.738;2023-05-27T03:21:56;12.60;44.10
74294;DHT22;64044;59.904;10.738;2023-05-27T03:24:22;12.60;44.20
74294;DHT22;64044;59.904;10.738;2023-05-27T03:26:48;12.50;44.40
74294;DHT22;64044;59.904;10.738;2023-05-27T03:29:14;12.50;44.60
74294;DHT22;64044;59.904;10.738;2023-05-27T03:31:41;12.50;44.70
74294;DHT22;64044;59.904;10.738;2023-05-27T03:34:07;12.50;44.70
74294;DHT22;64044;59.904;10.738;2023-05-27T03:36:32;12.50;44.90
74294;DHT22;64044;59.904;10.738;2023-05-27T03:39:00;12.50;44.90
74294;DHT22;64044;59.904;10.738;2023-05-27T03:41:26;12.50;44.90
74294;DHT22;64044;59.904;10.738;2023-05-27T03:43:52;12.50;45.10
74294;DHT22;64044;59.904;10.738;2023-05-27T03:46:17;12.50;45.30
74294;DHT22;64044;59.904;10.738;2023-05-27T03:48:43;12.50;45.30
74294;DHT22;64044;59.904;10.738;2023-05-27T03:51:09;12.50;45.40
74294;DHT22;64044;59.904;10.738;2023-05-27T03:53:34;12.50;45.50
74294;DHT22;64044;59.904;10.738;2023-05-27T03:56:01;12.50;45.60
74294;DHT22;64044;59.904;10.738;2023-05-27T03:58:26;12.50;45.70
74294;DHT22;64044;59.904;10.738;2023-05-27T04:00:52;12.50;45.80
74294;DHT22;64044;59.904;10.738;2023-05-27T04:03:18;12.50;46.00
74294;DHT22;64044;59.904;10.738;2023-05-27T04:05:44;12.50;46.30
74294;DHT22;64044;59.904;10.738;2023-05-27T04:08:09;12.50;46.60
74294;DHT22;64044;59.904;10.738;2023-05-27T04:10:35;12.50;46.70
74294;DHT22;64044;59.904;10.738;2023-05-27T04:13:01;12.60;47.00
74294;DHT22;64044;59.904;10.738;2023-05-27T04:15:26;12.50;47.20
74294;DHT22;64044;59.904;10.738;2023-05-27T04:17:52;12.60;47.20
74294;DHT22;64044;59.904;10.738;2023-05-27T04:20:18;12.60;47.10
74294;DHT22;64044;59.904;10.738;2023-05-27T04:22:44;12.70;47.20
74294;DHT22;64044;59.904;10.738;2023-05-27T04:25:10;12.70;47.40
74294;DHT22;64044;59.904;10.738;2023-05-27T04:27:35;12.70;47.50
74294;DHT22;64044;59.904;10.738;2023-05-27T04:30:03;12.80;47.90
74294;DHT22;64044;59.904;10.738;2023-05-27T04:32:29;12.80;48.20
74294;DHT22;64044;59.904;10.738;2023-05-27T04:35:07;12.90;48.30
74294;DHT22;64044;59.904;10.738;2023-05-27T04:37:34;12.90;48.20
74294;DHT22;64044;59.904;10.738;2023-05-27T04:40:04;13.00;48.40
74294;DHT22;64044;59.904;10.738;2023-05-27T04:42:32;13.00;48.60
74294;DHT22;64044;59.904;10.738;2023-05-27T04:44:58;13.10;48.30
74294;DHT22;64044;59.904;10.738;2023-05-27T04:47:25;13.10;48.40
74294;DHT22;64044;59.904;10.738;2023-05-27T04:49:51;13.20;48.80
74294;DHT22;64044;59.904;10.738;2023-05-27T04:52:17;13.20;48.90
74294;DHT22;64044;59.904;10.738;2023-05-27T04:54:46;13.30;49.00
74294;DHT22;64044;59.904;10.738;2023-05-27T04:57:13;13.30;49.10
74294;DHT22;64044;59.904;10.738;2023-05-27T04:59:43;13.40;49.10
74294;DHT22;64044;59.904;10.738;2023-05-27T05:02:25;13.40;49.00
74294;DHT22;64044;59.904;10.738;2023-05-27T05:05:01;13.50;49.00
74294;DHT22;64044;59.904;10.738;2023-05-27T05:07:27;13.50;49.10
74294;DHT22;64044;59.904;10.738;2023-05-27T05:09:53;13.60;49.00
74294;DHT22;64044;59.904;10.738;2023-05-27T05:12:19;13.50;49.10
74294;DHT22;64044;59.904;10.738;2023-05-27T05:14:44;13.60;49.10
74294;DHT22;64044;59.904;10.738;2023-05-27T05:17:10;13.60;49.10
74294;DHT22;64044;59.904;10.738;2023-05-27T05:19:36;13.60;49.20
74294;DHT22;64044;59.904;10.738;2023-05-27T05:22:02;13.70;49.40
74294;DHT22;64044;59.904;10.738;2023-05-27T05:24:27;13.70;49.50
74294;DHT22;64044;59.904;10.738;2023-05-27T05:26:53;13.70;49.40
74294;DHT22;64044;59.904;10.738;2023-05-27T05:29:19;13.80;49.40
74294;DHT22;64044;59.904;10.738;2023-05-27T05:31:44;13.80;49.40
74294;DHT22;64044;59.904;10.738;2023-05-27T05:34:11;13.90;49.30
74294;DHT22;64044;59.904;10.738;2023-05-27T05:36:37;14.00;49.20
74294;DHT22;64044;59.904;10.738;2023-05-27T05:39:03;14.00;49.20
74294;DHT22;64044;59.904;10.738;2023-05-27T05:41:29;14.10;49.10
74294;DHT22;64044;59.904;10.738;2023-05-27T05:43:55;14.10;48.90
74294;DHT22;64044;59.904;10.738;2023-05-27T05:46:21;14.20;48.80
74294;DHT22;64044;59.904;10.738;2023-05-27T05:48:47;14.30;48.70
74294;DHT22;64044;59.904;10.738;2023-05-27T05:51:12;14.30;48.70
74294;DHT22;64044;59.904;10.738;2023-05-27T05:53:38;14.40;48.70
74294;DHT22;64044;59.904;10.738;2023-05-27T05:56:04;14.50;48.60
74294;DHT22;64044;59.904;10.738;2023-05-27T05:58:30;14.60;48.60
74294;DHT22;64044;59.904;10.738;2023-05-27T06:00:56;14.60;49.00
74294;DHT22;64044;59.904;10.738;2023-05-27T06:03:21;14.70;48.30
74294;DHT22;64044;59.904;10.738;2023-05-27T06:05:47;14.70;48.20
74294;DHT22;64044;59.904;10.738;2023-05-27T06:08:13;14.70;48.20
74294;DHT22;64044;59.904;10.738;2023-05-27T06:10:38;14.80;48.20
74294;DHT22;64044;59.904;10.738;2023-05-27T06:13:04;14.80;48.30
74294;DHT22;64044;59.904;10.738;2023-05-27T06:15:31;14.90;48.30
74294;DHT22;64044;59.904;10.738;2023-05-27T06:17:57;14.90;48.20
74294;DHT22;64044;59.904;10.738;2023-05-27T06:20:23;14.90;48.10
74294;DHT22;64044;59.904;10.738;2023-05-27T06:22:49;15.00;48.00
74294;DHT22;64044;59.904;10.738;2023-05-27T06:25:14;15.00;47.80
74294;DHT22;64044;59.904;10.738;2023-05-27T06:27:41;15.10;47.60
74294;DHT22;64044;59.904;10.738;2023-05-27T06:30:07;15.20;47.90
74294;DHT22;64044;59.904;10.738;2023-05-27T06:32:33;15.30;48.00
74294;DHT22;64044;59.904;10.738;2023-05-27T06:34:59;15.30;47.70
74294;DHT22;64044;59.904;10.738;2023-05-27T06:37:24;15.40;47.50
74294;DHT22;64044;59.904;10.738;2023-05-27T06:39:50;15.50;47.30
74294;DHT22;64044;59.904;10.738;2023-05-27T06:42:16;15.60;47.20
74294;DHT22;64044;59.904;10.738;2023-05-27T06:44:42;15.60;47.00
74294;DHT22;64044;59.904;10.738;2023-05-27T06:47:08;15.70;46.90
74294;DHT22;64044;59.904;10.738;2023-05-27T06:49:33;15.80;46.60
74294;DHT22;64044;59.904;10.738;2023-05-27T06:51:59;15.80;46.50
74294;DHT22;64044;59.904;10.738;2023-05-27T06:54:25;15.80;46.30
74294;DHT22;64044;59.904;10.738;2023-05-27T06:56:50;15.90;46.20
74294;DHT22;64044;59.904;10.738;2023-05-27T06:59:16;15.90;45.90
74294;DHT22;64044;59.904;10.738;2023-05-27T07:01:42;15.90;45.60
74294;DHT22;64044;59.904;10.738;2023-05-27T07:04:07;15.90;45.30
74294;DHT22;64044;59.904;10.738;2023-05-27T07:06:33;15.90;45.20
74294;DHT22;64044;59.904;10.738;2023-05-27T07:08:59;15.90;45.30
74294;DHT22;64044;59.904;10.738;2023-05-27T07:11:24;15.90;45.30
74294;DHT22;64044;59.904;10.738;2023-05-27T07:13:51;15.90;45.20
74294;DHT22;64044;59.904;10.738;2023-05-27T07:16:17;15.90;45.30
74294;DHT22;64044;59.904;10.738;2023-05-27T07:18:43;15.90;45.40
74294;DHT22;64044;59.904;10.738;2023-05-27T07:21:09;15.90;45.50
74294;DHT22;64044;59.904;10.738;2023-05-27T07:23:34;15.90;45.60
74294;DHT22;64044;59.904;10.738;2023-05-27T07:26:00;15.80;45.50
74294;DHT22;64044;59.904;10.738;2023-05-27T07:28:26;15.90;45.60
74294;DHT22;64044;59.904;10.738;2023-05-27T07:30:51;15.90;45.60
74294;DHT22;64044;59.904;10.738;2023-05-27T07:33:17;15.90;45.60
74294;DHT22;64044;59.904;10.738;2023-05-27T07:35:43;15.90;45.70
74294;DHT22;64044;59.904;10.738;2023-05-27T07:38:09;16.00;45.60
74294;DHT22;64044;59.904;10.738;2023-05-27T07:40:35;16.00;45.40
74294;DHT22;64044;59.904;10.738;2023-05-27T07:43:01;16.10;45.50
74294;DHT22;64044;59.904;10.738;2023-05-27T07:45:28;16.10;45.00
74294;DHT22;64044;59.904;10.738;2023-05-27T07:47:53;16.20;44.80
74294;DHT22;64044;59.904;10.738;2023-05-27T07:50:19;16.20;44.70
74294;DHT22;64044;59.904;10.738;2023-05-27T07:52:45;16.30;44.60
74294;DHT22;64044;59.904;10.738;2023-05-27T07:55:11;16.30;44.20
74294;DHT22;64044;59.904;10.738;2023-05-27T07:57:36;16.40;44.00
74294;DHT22;64044;59.904;10.738;2023-05-27T08:00:05;16.50;43.80
74294;DHT22;64044;59.904;10.738;2023-05-27T08:02:31;16.50;43.70
74294;DHT22;64044;59.904;10.738;2023-05-27T08:04:57;16.60;43.90
74294;DHT22;64044;59.904;10.738;2023-05-27T08:07:23;16.70;43.60
74294;DHT22;64044;59.904;10.738;2023-05-27T08:09:48;16.80;43.30
74294;DHT22;64044;59.904;10.738;2023-05-27T08:12:14;16.80;42.80
74294;DHT22;64044;59.904;10.738;2023-05-27T08:14:40;16.90;42.70
74294;DHT22;64044;59.904;10.738;2023-05-27T08:17:06;16.90;42.30
74294;DHT22;64044;59.904;10.738;2023-05-27T08:19:32;17.00;42.00
74294;DHT22;64044;59.904;10.738;2023-05-27T08:21:58;17.00;42.00
74294;DHT22;64044;59.904;10.738;2023-05-27T08:24:24;17.10;42.10
74294;DHT22;64044;59.904;10.738;2023-05-27T08:26:50;17.20;42.00
74294;DHT22;64044;59.904;10.738;2023-05-27T08:29:16;17.20;41.90
74294;DHT22;64044;59.904;10.738;2023-05-27T08:31:42;17.30;41.50
74294;DHT22;64044;59.904;10.738;2023-05-27T08:34:07;17.40;41.30
74294;DHT22;64044;59.904;10.738;2023-05-27T08:36:33;17.50;41.20
74294;DHT22;64044;59.904;10.738;2023-05-27T08:38:59;17.60;41.40
74294;DHT22;64044;59.904;10.738;2023-05-27T08:41:26;17.70;41.40
74294;DHT22;64044;59.904;10.738;2023-05-27T08:43:53;17.80;41.40
74294;DHT22;64044;59.904;10.738;2023-05-27T08:46:19;17.80;41.10
74294;DHT22;64044;59.904;10.738;2023-05-27T08:48:46;17.90;40.70
74294;DHT22;64044;59.904;10.738;2023-05-27T08:51:13;18.00;40.80
74294;DHT22;64044;59.904;10.738;2023-05-27T08:53:39;18.10;40.30
74294;DHT22;64044;59.904;10.738;2023-05-27T08:56:05;18.20;40.00
74294;DHT22;64044;59.904;10.738;2023-05-27T08:58:32;18.30;39.80
74294;DHT22;64044;59.904;10.738;2023-05-27T09:00:58;18.40;39.60
74294;DHT22;64044;59.904;10.738;2023-05-27T09:03:24;18.50;39.40
74294;DHT22;64044;59.904;10.738;2023-05-27T09:05:50;18.60;39.50
74294;DHT22;64044;59.904;10.738;2023-05-27T09:08:15;18.80;39.50
74294;DHT22;64044;59.904;10.738;2023-05-27T09:10:42;18.90;40.10
74294;DHT22;64044;59.904;10.738;2023-05-27T09:13:08;19.10;39.40
74294;DHT22;64044;59.904;10.738;2023-05-27T09:15:34;19.20;38.70
74294;DHT22;64044;59.904;10.738;2023-05-27T09:18:02;19.30;38.40
74294;DHT22;64044;59.904;10.738;2023-05-27T09:20:29;19.30;38.40
74294;DHT22;64044;59.904;10.738;2023-05-27T09:23:03;19.30;37.90
74294;DHT22;64044;59.904;10.738;2023-05-27T09:25:29;19.30;37.90
74294;DHT22;64044;59.904;10.738;2023-05-27T09:27:56;19.30;38.20
74294;DHT22;64044;59.904;10.738;2023-05-27T09:30:25;19.30;37.90
74294;DHT22;64044;59.904;10.738;2023-05-27T09:33:00;19.40;37.30
74294;DHT22;64044;59.904;10.738;2023-05-27T09:35:26;19.40;37.20
74294;DHT22;64044;59.904;10.738;2023-05-27T09:37:52;19.40;37.10
74294;DHT22;64044;59.904;10.738;2023-05-27T09:40:17;19.50;37.30
74294;DHT22;64044;59.904;10.738;2023-05-27T09:42:44;19.50;37.20
74294;DHT22;64044;59.904;10.738;2023-05-27T09:45:12;19.60;37.40
74294;DHT22;64044;59.904;10.738;2023-05-27T09:47:40;19.70;37.20
74294;DHT22;64044;59.904;10.738;2023-05-27T09:50:08;19.70;36.60
74294;DHT22;64044;59.904;10.738;2023-05-27T09:52:37;19.70;37.00
74294;DHT22;64044;59.904;10.738;2023-05-27T09:55:06;19.80;36.80
74294;DHT22;64044;59.904;10.738;2023-05-27T09:57:34;19.80;36.80
74294;DHT22;64044;59.904;10.738;2023-05-27T10:00:03;19.80;36.40
74294;DHT22;64044;59.904;10.738;2023-05-27T10:02:36;19.90;36.80
74294;DHT22;64044;59.904;10.738;2023-05-27T10:05:03;19.90;36.80
74294;DHT22;64044;59.904;10.738;2023-05-27T10:07:36;19.90;36.50
74294;DHT22;64044;59.904;10.738;2023-05-27T10:10:08;19.90;36.50
74294;DHT22;64044;59.904;10.738;2023-05-27T10:12:36;20.00;36.30
74294;DHT22;64044;59.904;10.738;2023-05-27T10:15:03;20.10;36.20
74294;DHT22;64044;59.904;10.738;2023-05-27T10:17:40;20.10;36.30
74294;DHT22;64044;59.904;10.738;2023-05-27T10:20:07;20.20;36.80
74294;DHT22;64044;59.904;10.738;2023-05-27T10:22:45;20.20;36.50
74294;DHT22;64044;59.904;10.738;2023-05-27T10:25:12;20.30;36.60
74294;DHT22;64044;59.904;10.738;2023-05-27T10:27:50;20.30;35.90
74294;DHT22;64044;59.904;10.738;2023-05-27T10:30:16;20.40;36.40
74294;DHT22;64044;59.904;10.738;2023-05-27T10:32:49;20.40;36.50
74294;DHT22;64044;59.904;10.738;2023-05-27T10:35:16;20.50;36.50
74294;DHT22;64044;59.904;10.738;2023-05-27T10:37:43;20.50;36.60
74294;DHT22;64044;59.904;10.738;2023-05-27T10:40:09;20.60;36.40
74294;DHT22;64044;59.904;10.738;2023-05-27T10:42:35;20.70;36.30
74294;DHT22;64044;59.904;10.738;2023-05-27T10:45:09;20.80;36.00
74294;DHT22;64044;59.904;10.738;2023-05-27T10:47:44;20.90;35.70
74294;DHT22;64044;59.904;10.738;2023-05-27T10:50:12;21.00;36.00
74294;DHT22;64044;59.904;10.738;2023-05-27T10:52:39;21.10;35.40
74294;DHT22;64044;59.904;10.738;2023-05-27T10:55:06;21.20;35.10
74294;DHT22;64044;59.904;10.738;2023-05-27T10:57:32;21.40;35.00
74294;DHT22;64044;59.904;10.738;2023-05-27T11:00:04;21.40;35.30
74294;DHT22;64044;59.904;10.738;2023-05-27T11:02:36;21.50;34.70
74294;DHT22;64044;59.904;10.738;2023-05-27T11:05:13;21.60;34.40
74294;DHT22;64044;59.904;10.738;2023-05-27T11:07:40;21.70;34.10
74294;DHT22;64044;59.904;10.738;2023-05-27T11:10:07;21.80;33.60
74294;DHT22;64044;59.904;10.738;2023-05-27T11:12:33;21.80;33.50
74294;DHT22;64044;59.904;10.738;2023-05-27T11:15:00;21.80;33.30
74294;DHT22;64044;59.904;10.738;2023-05-27T11:17:25;21.80;33.70
74294;DHT22;64044;59.904;10.738;2023-05-27T11:19:52;21.80;33.80
74294;DHT22;64044;59.904;10.738;2023-05-27T11:22:19;21.80;33.80
74294;DHT22;64044;59.904;10.738;2023-05-27T11:24:57;21.90;33.60
74294;DHT22;64044;59.904;10.738;2023-05-27T11:27:23;21.90;33.20
74294;DHT22;64044;59.904;10.738;2023-05-27T11:29:50;22.00;33.80
74294;DHT22;64044;59.904;10.738;2023-05-27T11:32:17;22.00;33.70
74294;DHT22;64044;59.904;10.738;2023-05-27T11:35:15;22.10;33.30
74294;DHT22;64044;59.904;10.738;2023-05-27T11:37:54;22.30;34.10
74294;DHT22;64044;59.904;10.738;2023-05-27T11:40:20;22.30;33.50
74294;DHT22;64044;59.904;10.738;2023-05-27T11:42:46;22.40;33.00
74294;DHT22;64044;59.904;10.738;2023-05-27T11:45:20;22.50;33.00
74294;DHT22;64044;59.904;10.738;2023-05-27T11:47:47;22.50;32.40
74294;DHT22;64044;59.904;10.738;2023-05-27T11:50:17;22.40;32.40
74294;DHT22;64044;59.904;10.738;2023-05-27T11:52:57;22.50;32.70
74294;DHT22;64044;59.904;10.738;2023-05-27T11:55:23;22.40;32.90
74294;DHT22;64044;59.904;10.738;2023-05-27T11:57:50;22.40;32.60
74294;DHT22;64044;59.904;10.738;2023-05-27T12:00:16;22.40;33.00
74294;DHT22;64044;59.904;10.738;2023-05-27T12:02:43;22.40;33.00
74294;DHT22;64044;59.904;10.738;2023-05-27T12:05:10;22.40;32.60
74294;DHT22;64044;59.904;10.738;2023-05-27T12:07:36;22.40;32.60
74294;DHT22;64044;59.904;10.738;2023-05-27T12:10:08;22.40;32.80
74294;DHT22;64044;59.904;10.738;2023-05-27T12:12:34;22.40;32.90
74294;DHT22;64044;59.904;10.738;2023-05-27T12:15:01;22.30;33.80
74294;DHT22;64044;59.904;10.738;2023-05-27T12:17:27;22.20;34.40
74294;DHT22;64044;59.904;10.738;2023-05-27T12:19:52;22.10;34.20
74294;DHT22;64044;59.904;10.738;2023-05-27T12:22:18;22.10;34.30
74294;DHT22;64044;59.904;10.738;2023-05-27T12:24:44;22.00;33.70
74294;DHT22;64044;59.904;10.738;2023-05-27T12:27:09;21.90;34.30
74294;DHT22;64044;59.904;10.738;2023-05-27T12:29:35;21.90;34.40
74294;DHT22;64044;59.904;10.738;2023-05-27T12:32:01;21.90;34.90
74294;DHT22;64044;59.904;10.738;2023-05-27T12:34:26;21.90;35.40
74294;DHT22;64044;59.904;10.738;2023-05-27T12:36:52;21.90;35.40
74294;DHT22;64044;59.904;10.738;2023-05-27T12:39:18;22.00;35.30
74294;DHT22;64044;59.904;10.738;2023-05-27T12:41:45;22.20;35.60
74294;DHT22;64044;59.904;10.738;2023-05-27T12:44:11;22.40;35.40
74294;DHT22;64044;59.904;10.738;2023-05-27T12:46:36;22.60;35.30
74294;DHT22;64044;59.904;10.738;2023-05-27T12:49:02;22.80;34.70
74294;DHT22;64044;59.904;10.738;2023-05-27T12:51:28;23.10;34.40
74294;DHT22;64044;59.904;10.738;2023-05-27T12:53:53;23.40;34.00
74294;DHT22;64044;59.904;10.738;2023-05-27T12:56:19;23.70;34.20
74294;DHT22;64044;59.904;10.738;2023-05-27T12:58:45;24.00;33.70
74294;DHT22;64044;59.904;10.738;2023-05-27T13:01:11;24.30;32.60
74294;DHT22;64044;59.904;10.738;2023-05-27T13:03:36;24.60;31.80
74294;DHT22;64044;59.904;10.738;2023-05-27T13:06:02;24.60;30.60
74294;DHT22;64044;59.904;10.738;2023-05-27T13:08:28;24.50;30.00
74294;DHT22;64044;59.904;10.738;2023-05-27T13:10:54;24.40;29.80
74294;DHT22;64044;59.904;10.738;2023-05-27T13:13:19;24.10;29.60
74294;DHT22;64044;59.904;10.738;2023-05-27T13:15:45;23.80;29.90
74294;DHT22;64044;59.904;10.738;2023-05-27T13:18:12;23.60;30.40
74294;DHT22;64044;59.904;10.738;2023-05-27T13:20:38;23.30;31.00
74294;DHT22;64044;59.904;10.738;2023-05-27T13:23:04;23.10;31.20
74294;DHT22;64044;59.904;10.738;2023-05-27T13:25:30;22.90;31.80
74294;DHT22;64044;59.904;10.738;2023-05-27T13:27:57;22.90;32.50
74294;DHT22;64044;59.904;10.738;2023-05-27T13:30:23;22.90;32.70
74294;DHT22;64044;59.904;10.738;2023-05-27T13:32:49;23.00;32.70
74294;DHT22;64044;59.904;10.738;2023-05-27T13:35:14;23.00;32.20
74294;DHT22;64044;59.904;10.738;2023-05-27T13:37:41;22.90;32.20
74294;DHT22;64044;59.904;10.738;2023-05-27T13:40:08;23.00;32.10
74294;DHT22;64044;59.904;10.738;2023-05-27T13:42:34;22.90;32.10
74294;DHT22;64044;59.904;10.738;2023-05-27T13:44:59;22.90;32.80
74294;DHT22;64044;59.904;10.738;2023-05-27T13:47:25;22.90;32.00
74294;DHT22;64044;59.904;10.738;2023-05-27T13:49:51;22.80;31.80
74294;DHT22;64044;59.904;10.738;2023-05-27T13:52:17;22.70;32.20
74294;DHT22;64044;59.904;10.738;2023-05-27T13:54:42;22.50;32.40
74294;DHT22;64044;59.904;10.738;2023-05-27T13:57:08;22.40;32.30
74294;DHT22;64044;59.904;10.738;2023-05-27T13:59:34;22.30;32.50
74294;DHT22;64044;59.904;10.738;2023-05-27T14:02:00;22.10;32.40
74294;DHT22;64044;59.904;10.738;2023-05-27T14:04:31;21.90;33.10
74294;DHT22;64044;59.904;10.738;2023-05-27T14:06:58;21.80;33.50
74294;DHT22;64044;59.904;10.738;2023-05-27T14:09:23;21.60;34.20
74294;DHT22;64044;59.904;10.738;2023-05-27T14:11:49;21.60;34.40
74294;DHT22;64044;59.904;10.738;2023-05-27T14:14:15;21.50;34.20
74294;DHT22;64044;59.904;10.738;2023-05-27T14:16:40;21.40;34.60
74294;DHT22;64044;59.904;10.738;2023-05-27T14:19:06;21.40;34.70
74294;DHT22;64044;59.904;10.738;2023-05-27T14:21:32;21.40;35.00
74294;DHT22;64044;59.904;10.738;2023-05-27T14:23:58;21.30;35.20
74294;DHT22;64044;59.904;10.738;2023-05-27T14:26:25;21.40;35.30
74294;DHT22;64044;59.904;10.738;2023-05-27T14:28:51;21.40;35.80
74294;DHT22;64044;59.904;10.738;2023-05-27T14:31:17;21.50;35.80
74294;DHT22;64044;59.904;10.738;2023-05-27T14:33:43;21.60;36.20
74294;DHT22;64044;59.904;10.738;2023-05-27T14:36:09;21.60;36.00
74294;DHT22;64044;59.904;10.738;2023-05-27T14:38:34;21.70;36.20
74294;DHT22;64044;59.904;10.738;2023-05-27T14:41:00;21.70;35.00
74294;DHT22;64044;59.904;10.738;2023-05-27T14:43:26;21.80;33.60
74294;DHT22;64044;59.904;10.738;2023-05-27T14:45:52;21.70;32.90
74294;DHT22;64044;59.904;10.738;2023-05-27T14:48:17;21.70;32.70
74294;DHT22;64044;59.904;10.738;2023-05-27T14:50:44;21.60;31.90
74294;DHT22;64044;59.904;10.738;2023-05-27T14:53:10;21.60;31.90
74294;DHT22;64044;59.904;10.738;2023-05-27T14:55:35;21.50;32.10
74294;DHT22;64044;59.904;10.738;2023-05-27T14:58:01;21.30;32.20
74294;DHT22;64044;59.904;10.738;2023-05-27T15:00:31;21.20;32.90
74294;DHT22;64044;59.904;10.738;2023-05-27T15:02:57;21.10;33.10
74294;DHT22;64044;59.904;10.738;2023-05-27T15:05:22;20.90;33.70
74294;DHT22;64044;59.904;10.738;2023-05-27T15:07:48;20.80;34.40
74294;DHT22;64044;59.904;10.738;2023-05-27T15:10:13;20.70;34.70
74294;DHT22;64044;59.904;10.738;2023-05-27T15:12:41;20.60;35.70
74294;DHT22;64044;59.904;10.738;2023-05-27T15:15:10;20.40;36.60
74294;DHT22;64044;59.904;10.738;2023-05-27T15:17:36;20.30;36.50